createdAt,value
2023-01-19T00:04:28.320Z,0
2023-01-19T00:09:28.323Z,0
2023-01-19T00:14:28.333Z,0
2023-01-19T00:19:28.348Z,0
2023-01-19T00:24:28.332Z,0
2023-01-19T00:29:28.315Z,0
2023-01-19T00:34:28.348Z,0
2023-01-19T00:39:28.548Z,0
2023-01-19T00:44:28.549Z,0
2023-01-19T00:49:28.563Z,0
2023-01-19T00:54:28.597Z,0
2023-01-19T00:59:28.552Z,0
2023-01-19T01:04:28.588Z,0
2023-01-19T01:09:28.556Z,0
2023-01-19T01:14:28.556Z,0
2023-01-19T01:19:28.555Z,0
2023-01-19T01:24:28.553Z,0
2023-01-19T01:29:28.527Z,0
2023-01-19T01:34:28.587Z,0
2023-01-19T01:39:28.496Z,0
2023-01-19T01:44:28.493Z,0
2023-01-19T01:49:28.505Z,0
2023-01-19T01:54:28.533Z,0
2023-01-19T01:59:28.517Z,0
2023-01-19T02:04:28.562Z,0
2023-01-19T02:09:28.516Z,0
2023-01-19T02:14:28.500Z,0
2023-01-19T02:19:28.487Z,0
2023-01-19T02:24:28.512Z,0
2023-01-19T02:29:28.515Z,0
2023-01-19T02:34:28.510Z,0
2023-01-19T02:39:28.482Z,0
2023-01-19T02:44:28.461Z,0
2023-01-19T02:49:28.510Z,0
2023-01-19T02:54:28.507Z,0
2023-01-19T02:59:28.476Z,0
2023-01-19T03:04:28.455Z,0
2023-01-19T03:09:28.458Z,0
2023-01-19T03:14:28.511Z,0
2023-01-19T03:19:28.465Z,0
2023-01-19T03:24:28.452Z,0
2023-01-19T03:29:28.474Z,0
2023-01-19T03:34:28.479Z,0
2023-01-19T03:39:28.497Z,0
2023-01-19T03:44:28.451Z,0
2023-01-19T03:49:28.448Z,0
2023-01-19T03:54:28.492Z,0
2023-01-19T03:59:28.451Z,0
2023-01-19T04:04:28.386Z,0
2023-01-19T04:09:28.431Z,0
2023-01-19T04:14:28.491Z,0
2023-01-19T04:19:28.438Z,0
2023-01-19T04:24:28.420Z,0
2023-01-19T04:29:28.444Z,0
2023-01-19T04:34:28.455Z,0
2023-01-19T04:39:28.431Z,0
2023-01-19T04:44:28.452Z,0
2023-01-19T04:49:28.437Z,0
2023-01-19T04:54:28.632Z,0
2023-01-19T04:59:28.420Z,0
2023-01-19T05:04:28.391Z,0
2023-01-19T05:09:28.410Z,0
2023-01-19T05:14:28.440Z,0
2023-01-19T05:19:28.404Z,0
2023-01-19T05:24:28.392Z,0
2023-01-19T05:29:28.383Z,0
2023-01-19T05:34:28.418Z,0
2023-01-19T05:39:28.352Z,0
2023-01-19T05:44:28.376Z,0
2023-01-19T05:49:28.356Z,0
2023-01-19T05:54:28.397Z,0
2023-01-19T05:59:28.368Z,0
2023-01-19T06:04:28.352Z,0
2023-01-19T06:09:28.357Z,0
2023-01-19T06:14:28.447Z,0
2023-01-19T06:19:28.342Z,0
2023-01-19T06:24:28.926Z,0
2023-01-19T06:29:29.527Z,0
2023-01-19T06:34:29.106Z,0
2023-01-19T06:39:28.888Z,0
2023-01-19T06:44:28.875Z,0
2023-01-19T06:49:29.900Z,0
2023-01-19T06:54:29.958Z,0
2023-01-19T06:59:29.898Z,0
2023-01-19T07:04:29.939Z,0
2023-01-19T07:09:31.148Z,0
2023-01-19T07:14:31.164Z,0
2023-01-19T07:19:31.156Z,0
2023-01-19T07:24:31.132Z,0
2023-01-19T07:29:31.137Z,0
2023-01-19T07:34:31.169Z,0
2023-01-19T07:39:31.101Z,0
2023-01-19T07:44:31.080Z,0
2023-01-19T07:49:31.128Z,0
2023-01-19T07:54:31.149Z,0
2023-01-19T07:59:31.124Z,0
2023-01-19T08:04:31.192Z,0
2023-01-19T08:09:31.098Z,0
2023-01-19T08:14:31.150Z,1
2023-01-19T08:19:31.090Z,5
2023-01-19T08:24:31.085Z,12
2023-01-19T08:29:31.098Z,11
2023-01-19T08:34:31.173Z,8
2023-01-19T08:39:31.078Z,18
2023-01-19T08:44:31.098Z,9
2023-01-19T08:49:31.097Z,7
2023-01-19T08:54:31.095Z,6
2023-01-19T08:59:31.058Z,14
2023-01-19T09:04:31.053Z,13
2023-01-19T09:09:31.083Z,19
2023-01-19T09:14:31.111Z,20
2023-01-19T09:19:31.099Z,27
2023-01-19T09:24:31.063Z,18
2023-01-19T09:29:31.043Z,18
2023-01-19T09:34:31.189Z,12
2023-01-19T09:39:31.086Z,15
2023-01-19T09:44:31.058Z,29
2023-01-19T09:49:31.081Z,27
2023-01-19T09:54:31.101Z,23
2023-01-19T09:59:31.053Z,25
2023-01-19T10:04:31.045Z,29
2023-01-19T10:09:31.071Z,26
2023-01-19T10:14:31.083Z,36
2023-01-19T10:19:31.044Z,51
2023-01-19T10:24:31.093Z,38
2023-01-19T10:29:31.064Z,29
2023-01-19T10:34:31.076Z,32
2023-01-19T10:39:31.096Z,40
2023-01-19T10:44:31.091Z,53
2023-01-19T10:49:31.032Z,30
2023-01-19T10:54:31.065Z,37
2023-01-19T10:59:31.008Z,51
2023-01-19T11:04:31.014Z,41
2023-01-19T11:09:31.011Z,41
2023-01-19T11:14:31.054Z,39
2023-01-19T11:19:31.004Z,50
2023-01-19T11:24:31.017Z,44
2023-01-19T11:29:31.000Z,43
2023-01-19T11:34:31.049Z,43
2023-01-19T11:39:31.010Z,45
2023-01-19T11:44:31.025Z,55
2023-01-19T11:49:31.008Z,64
2023-01-19T11:54:31.031Z,71
2023-01-19T11:59:31.004Z,67
2023-01-19T12:04:31.012Z,72
2023-01-19T12:09:31.008Z,59
2023-01-19T12:14:31.043Z,62
2023-01-19T12:19:30.981Z,54
2023-01-19T12:24:31.019Z,109
2023-01-19T12:29:31.016Z,138
2023-01-19T12:34:31.168Z,131
2023-01-19T12:39:30.985Z,203
2023-01-19T12:44:30.975Z,213
2023-01-19T12:49:30.983Z,178
2023-01-19T12:54:31.008Z,184
2023-01-19T12:59:30.984Z,210
2023-01-19T13:04:30.951Z,189
2023-01-19T13:09:30.956Z,80
2023-01-19T13:14:31.015Z,66
2023-01-19T13:19:30.998Z,108
2023-01-19T13:24:30.962Z,34
2023-01-19T13:29:30.975Z,124
2023-01-19T13:34:30.970Z,270
2023-01-19T13:39:30.929Z,255
2023-01-19T13:44:30.925Z,325
2023-01-19T13:49:30.937Z,314
2023-01-19T13:54:30.975Z,305
2023-01-19T13:59:30.970Z,235
2023-01-19T14:04:30.995Z,199
2023-01-19T14:09:30.960Z,264
2023-01-19T14:14:31.053Z,192
2023-01-19T14:19:30.951Z,110
2023-01-19T14:24:30.915Z,136
2023-01-19T14:29:32.696Z,184
2023-01-19T14:34:30.935Z,184
2023-01-19T14:39:30.902Z,174
2023-01-19T14:44:30.943Z,88
2023-01-19T14:49:30.923Z,79
2023-01-19T14:54:30.920Z,71
2023-01-19T14:59:30.936Z,35
2023-01-19T15:04:30.940Z,25
2023-01-19T15:09:30.905Z,20
2023-01-19T15:14:31.090Z,12
2023-01-19T15:19:30.900Z,15
2023-01-19T15:24:30.904Z,13
2023-01-19T15:29:32.274Z,12
2023-01-19T15:34:30.921Z,12
2023-01-19T15:39:30.890Z,12
2023-01-19T15:44:30.897Z,2
2023-01-19T15:49:30.907Z,0
2023-01-19T15:54:30.904Z,0
2023-01-19T15:59:30.885Z,0
2023-01-19T16:04:30.929Z,0
2023-01-19T16:09:30.899Z,0
2023-01-19T16:14:30.887Z,0
2023-01-19T16:19:30.866Z,0
2023-01-19T16:24:30.891Z,0
2023-01-19T16:29:30.885Z,0
2023-01-19T16:34:30.928Z,0
2023-01-19T16:39:30.853Z,0
2023-01-19T16:44:30.863Z,0
2023-01-19T16:49:30.897Z,0
2023-01-19T16:54:30.902Z,0
2023-01-19T16:59:30.872Z,0
2023-01-19T17:04:30.841Z,0
2023-01-19T17:09:31.095Z,0
2023-01-19T17:14:31.192Z,0
2023-01-19T17:19:31.123Z,0
2023-01-19T17:24:31.097Z,0
2023-01-19T17:29:31.336Z,0
2023-01-19T17:34:31.357Z,0
2023-01-19T17:39:31.332Z,0
2023-01-19T17:44:31.324Z,0
2023-01-19T17:49:31.332Z,0
2023-01-19T17:54:32.725Z,0
2023-01-19T17:59:32.716Z,0
2023-01-19T18:04:32.665Z,0
2023-01-19T18:09:32.676Z,0
2023-01-19T18:14:32.703Z,0
2023-01-19T18:19:32.660Z,0
2023-01-19T18:24:32.634Z,0
2023-01-19T18:29:32.657Z,0
2023-01-19T18:34:32.687Z,0
2023-01-19T18:39:32.665Z,0
2023-01-19T18:44:32.693Z,0
2023-01-19T18:49:32.624Z,0
2023-01-19T18:54:32.659Z,0
2023-01-19T18:59:32.632Z,0
2023-01-19T19:04:32.636Z,0
2023-01-19T19:09:32.615Z,0
2023-01-19T19:14:32.653Z,0
2023-01-19T19:19:32.643Z,0
2023-01-19T19:24:32.627Z,0
2023-01-19T19:29:32.627Z,0
2023-01-19T19:34:32.637Z,0
2023-01-19T19:39:32.609Z,0
2023-01-19T19:44:32.582Z,0
2023-01-19T19:49:32.629Z,0
2023-01-19T19:54:33.230Z,0
2023-01-19T19:59:33.193Z,0
2023-01-19T20:04:33.270Z,0
2023-01-19T20:09:33.183Z,0
2023-01-19T20:14:33.228Z,0
2023-01-19T20:19:33.211Z,0
2023-01-19T20:24:33.201Z,0
2023-01-19T20:29:33.197Z,0
2023-01-19T20:34:33.791Z,0
2023-01-19T20:39:33.316Z,0
2023-01-19T20:44:33.179Z,0
2023-01-19T20:49:36.467Z,0
2023-01-19T20:54:36.464Z,0
2023-01-19T20:59:36.417Z,0
2023-01-19T21:04:36.422Z,0
2023-01-19T21:09:36.499Z,0
2023-01-19T21:14:36.496Z,0
2023-01-19T21:19:36.421Z,0
2023-01-19T21:24:36.495Z,0
2023-01-19T21:29:36.459Z,0
2023-01-19T21:34:36.519Z,0
2023-01-19T21:39:36.399Z,0
2023-01-19T21:44:36.510Z,0
2023-01-19T21:49:36.434Z,0
2023-01-19T21:54:36.467Z,0
2023-01-19T21:59:36.383Z,0
2023-01-19T22:04:36.381Z,0
2023-01-19T22:09:36.545Z,0
2023-01-19T22:14:36.394Z,0
2023-01-19T22:19:36.361Z,0
2023-01-19T22:24:36.353Z,0
2023-01-19T22:29:36.414Z,0
2023-01-19T22:34:36.390Z,0
2023-01-19T22:39:36.594Z,0
2023-01-19T22:44:36.638Z,0
2023-01-19T22:49:36.803Z,0
2023-01-19T22:54:36.700Z,0
2023-01-19T22:59:36.772Z,0
2023-01-19T23:04:36.671Z,0
2023-01-19T23:09:36.760Z,0
2023-01-19T23:14:36.892Z,0
2023-01-19T23:19:36.833Z,0
2023-01-19T23:24:36.810Z,0
2023-01-19T23:29:36.850Z,0
2023-01-19T23:34:36.827Z,0
2023-01-19T23:39:36.836Z,0
2023-01-19T23:44:36.841Z,0
2023-01-19T23:49:36.861Z,0
2023-01-19T23:54:36.865Z,0
2023-01-19T23:59:36.902Z,0
